createdAt,value
2019-03-21T00:00:38.737Z,0.50
2019-03-21T00:06:12.974Z,0.40
2019-03-21T00:12:05.279Z,0.40
2019-03-21T00:17:42.114Z,0.30
2019-03-21T00:23:11.720Z,0.20
2019-03-21T00:28:41.061Z,0.20
2019-03-21T00:34:10.471Z,0.20
2019-03-21T00:39:39.800Z,0.10
2019-03-21T00:45:16.119Z,0.00
2019-03-21T00:50:45.580Z,0.00
2019-03-21T00:56:14.990Z,0.00
2019-03-21T01:01:44.487Z,0.00
2019-03-21T01:07:13.905Z,-0.10
2019-03-21T01:12:43.360Z,-0.20
2019-03-21T01:18:12.913Z,-0.20
2019-03-21T01:23:42.272Z,-0.30
2019-03-21T01:29:11.608Z,-0.30
2019-03-21T01:34:41.043Z,-0.30
2019-03-21T01:40:21.165Z,-0.30
2019-03-21T01:45:50.648Z,-0.40
2019-03-21T01:51:20.080Z,-0.40
2019-03-21T01:56:52.344Z,-0.40
2019-03-21T02:02:21.755Z,-0.40
2019-03-21T02:07:51.257Z,-0.40
2019-03-21T02:13:20.633Z,-0.40
2019-03-21T02:18:50.013Z,-0.30
2019-03-21T02:24:19.467Z,-0.30
2019-03-21T02:29:48.827Z,-0.30
2019-03-21T02:35:18.374Z,-0.40
2019-03-21T02:40:50.369Z,-0.40
2019-03-21T02:46:19.787Z,-0.40
2019-03-21T02:51:49.206Z,-0.30
2019-03-21T02:57:18.609Z,-0.40
2019-03-21T03:02:48.164Z,-0.50
2019-03-21T03:08:17.476Z,-0.50
2019-03-21T03:13:50.142Z,-0.50
2019-03-21T03:19:19.870Z,-0.50
2019-03-21T03:24:49.182Z,-0.50
2019-03-21T03:30:22.448Z,-0.50
2019-03-21T03:35:51.925Z,-0.50
2019-03-21T03:41:22.583Z,-0.60
2019-03-21T03:46:51.934Z,-0.60
2019-03-21T03:52:22.251Z,-0.60
2019-03-21T03:58:08.444Z,-0.60
2019-03-21T04:03:37.943Z,-0.60
2019-03-21T04:09:09.261Z,-0.70
2019-03-21T04:14:38.557Z,-0.70
2019-03-21T04:20:15.353Z,-0.70
2019-03-21T04:26:12.746Z,-0.80
2019-03-21T04:31:42.178Z,-0.80
2019-03-21T04:37:11.594Z,-0.90
2019-03-21T04:42:44.794Z,-0.90
2019-03-21T04:48:14.241Z,-0.90
2019-03-21T04:53:43.692Z,-1.00
2019-03-21T04:59:13.130Z,-1.00
2019-03-21T05:04:43.561Z,-1.00
2019-03-21T05:10:16.619Z,-1.10
2019-03-21T05:15:51.405Z,-1.20
2019-03-21T05:21:25.382Z,-1.30
2019-03-21T05:26:57.076Z,-1.30
2019-03-21T05:32:26.677Z,-1.20
2019-03-21T05:37:58.955Z,-1.20
2019-03-21T05:43:35.993Z,-1.10
2019-03-21T05:49:05.579Z,-1.00
2019-03-21T05:54:35.162Z,-1.00
2019-03-21T06:00:24.346Z,-0.80
2019-03-21T06:06:05.330Z,-0.70
2019-03-21T06:11:35.031Z,-0.50
2019-03-21T06:17:04.512Z,-0.30
2019-03-21T06:23:02.779Z,-0.10
2019-03-21T06:28:32.209Z,0.10
2019-03-21T06:34:01.857Z,0.50
2019-03-21T06:39:31.461Z,0.70
2019-03-21T06:45:01.183Z,1.00
2019-03-21T06:50:30.812Z,1.30
2019-03-21T06:56:00.394Z,1.60
2019-03-21T07:01:30.099Z,1.90
2019-03-21T07:07:07.985Z,2.20
2019-03-21T07:12:31.022Z,2.40
2019-03-21T07:18:00.653Z,2.80
2019-03-21T07:23:30.495Z,3.00
2019-03-21T07:29:00.241Z,3.20
2019-03-21T07:34:29.768Z,3.40
2019-03-21T07:39:59.312Z,3.60
2019-03-21T07:45:28.969Z,3.80
2019-03-21T07:50:58.560Z,4.00
2019-03-21T07:56:28.066Z,4.20
2019-03-21T08:01:57.550Z,4.50
2019-03-21T08:07:27.079Z,4.70
2019-03-21T08:12:57.775Z,5.00
2019-03-21T08:18:27.549Z,5.20
2019-03-21T08:23:57.278Z,5.40
2019-03-21T08:29:27.100Z,5.60
2019-03-21T08:34:57.195Z,5.90
2019-03-21T08:40:27.902Z,6.20
2019-03-21T08:45:57.704Z,6.40
2019-03-21T08:51:27.285Z,6.70
2019-03-21T08:56:57.845Z,7.00
2019-03-21T09:02:27.392Z,7.30
2019-03-21T09:07:57.003Z,7.60
2019-03-21T09:13:26.527Z,7.80
2019-03-21T09:18:56.149Z,8.10
2019-03-21T09:24:25.578Z,8.40
2019-03-21T09:29:55.253Z,8.50
2019-03-21T09:35:24.815Z,8.70
2019-03-21T09:40:54.327Z,9.00
2019-03-21T09:46:24.600Z,9.10
2019-03-21T09:51:54.127Z,9.10
2019-03-21T09:57:23.531Z,9.20
2019-03-21T10:02:52.952Z,9.30
2019-03-21T10:08:28.334Z,9.50
2019-03-21T10:13:57.905Z,9.60
2019-03-21T10:19:27.444Z,9.80
2019-03-21T10:24:56.968Z,10.00
2019-03-21T10:30:38.921Z,10.30
2019-03-21T10:36:08.386Z,10.30
2019-03-21T10:41:37.780Z,10.30
2019-03-21T10:47:07.289Z,10.50
2019-03-21T10:52:38.792Z,10.80
2019-03-21T10:58:08.515Z,10.90
2019-03-21T11:03:37.975Z,11.10
2019-03-21T11:09:08.647Z,10.90
2019-03-21T11:14:38.087Z,11.10
2019-03-21T11:20:09.121Z,11.30
2019-03-21T11:25:38.717Z,11.40
2019-03-21T11:31:08.166Z,11.50
2019-03-21T11:36:38.875Z,11.60
2019-03-21T11:42:08.328Z,11.70
2019-03-21T11:47:41.995Z,11.80
2019-03-21T11:53:10.077Z,11.90
2019-03-21T11:58:39.563Z,11.70
2019-03-21T12:04:08.952Z,11.90
2019-03-21T12:09:38.419Z,12.00
2019-03-21T12:15:12.644Z,11.90
2019-03-21T12:20:41.994Z,12.00
2019-03-21T12:26:11.346Z,12.20
2019-03-21T12:31:40.803Z,12.30
2019-03-21T12:37:10.211Z,12.40
2019-03-21T12:42:39.538Z,12.30
2019-03-21T12:48:09.023Z,12.30
2019-03-21T12:53:38.479Z,12.30
2019-03-21T12:59:08.755Z,12.30
2019-03-21T13:04:38.227Z,12.60
2019-03-21T13:10:07.880Z,14.60
2019-03-21T13:15:37.320Z,17.40
2019-03-21T13:21:06.736Z,17.70
2019-03-21T13:26:36.279Z,17.20
2019-03-21T13:32:06.741Z,17.00
2019-03-21T13:37:36.301Z,16.60
2019-03-21T13:43:05.899Z,16.20
2019-03-21T13:48:35.395Z,16.20
2019-03-21T13:54:04.884Z,16.60
2019-03-21T13:59:34.390Z,16.80
2019-03-21T14:05:05.553Z,17.60
2019-03-21T14:10:34.988Z,19.10
2019-03-21T14:16:04.441Z,20.10
2019-03-21T14:21:33.834Z,21.50
2019-03-21T14:27:03.325Z,22.60
2019-03-21T14:32:32.877Z,23.90
2019-03-21T14:38:02.402Z,24.60
2019-03-21T14:43:32.146Z,24.80
2019-03-21T14:49:01.596Z,25.60
2019-03-21T14:54:32.137Z,26.80
2019-03-21T15:00:01.715Z,26.60
2019-03-21T15:05:31.166Z,27.30
2019-03-21T15:11:00.707Z,27.50
2019-03-21T15:16:30.252Z,26.50
2019-03-21T15:22:04.643Z,25.70
2019-03-21T15:27:34.097Z,24.80
2019-03-21T15:33:03.766Z,24.10
2019-03-21T15:38:35.656Z,22.50
2019-03-21T15:44:06.543Z,21.90
2019-03-21T15:49:38.104Z,21.20
2019-03-21T15:55:08.757Z,20.70
2019-03-21T16:00:44.082Z,20.00
2019-03-21T16:06:13.547Z,20.20
2019-03-21T16:11:43.220Z,19.90
2019-03-21T16:17:12.934Z,19.90
2019-03-21T16:22:42.248Z,20.00
2019-03-21T16:28:11.773Z,19.70
2019-03-21T16:33:43.346Z,17.60
2019-03-21T16:39:12.571Z,16.10
2019-03-21T16:44:42.172Z,15.00
2019-03-21T16:50:18.850Z,14.10
2019-03-21T16:55:48.569Z,13.40
2019-03-21T17:01:18.158Z,12.80
2019-03-21T17:06:47.508Z,12.40
2019-03-21T17:12:16.911Z,12.00
2019-03-21T17:17:46.390Z,11.70
2019-03-21T17:23:15.898Z,11.30
2019-03-21T17:28:45.264Z,11.00
2019-03-21T17:34:14.754Z,10.70
2019-03-21T17:39:44.197Z,10.40
2019-03-21T17:45:18.427Z,10.10
2019-03-21T17:50:47.831Z,9.80
2019-03-21T17:56:17.251Z,9.60
2019-03-21T18:01:47.025Z,9.40
2019-03-21T18:07:16.737Z,9.20
2019-03-21T18:12:55.041Z,9.00
2019-03-21T18:18:25.470Z,8.90
2019-03-21T18:23:57.922Z,8.70
2019-03-21T18:29:27.597Z,8.60
2019-03-21T18:34:57.548Z,8.40
2019-03-21T18:40:27.259Z,8.40
2019-03-21T18:45:57.923Z,8.30
2019-03-21T18:51:28.555Z,8.10
2019-03-21T18:56:58.329Z,7.90
2019-03-21T19:02:47.538Z,7.70
2019-03-21T19:08:44.267Z,7.60
2019-03-21T19:14:13.862Z,7.40
2019-03-21T19:19:43.268Z,7.30
2019-03-21T19:25:18.346Z,7.10
2019-03-21T19:30:44.345Z,7.00
2019-03-21T19:36:13.916Z,6.80
2019-03-21T19:41:43.343Z,6.80
2019-03-21T19:47:23.157Z,6.60
2019-03-21T19:52:43.931Z,6.50
2019-03-21T19:58:13.503Z,6.40
2019-03-21T20:03:43.021Z,6.30
2019-03-21T20:09:12.597Z,6.30
2019-03-21T20:14:42.208Z,6.20
2019-03-21T20:20:17.445Z,6.10
2019-03-21T20:25:50.036Z,5.90
2019-03-21T20:31:19.398Z,5.80
2019-03-21T20:36:48.744Z,5.60
2019-03-21T20:42:18.172Z,5.50
2019-03-21T20:47:48.762Z,5.30
2019-03-21T20:53:19.780Z,5.20
2019-03-21T20:58:50.080Z,5.10
2019-03-21T21:04:21.566Z,5.00
2019-03-21T21:09:51.110Z,4.90
2019-03-21T21:15:20.634Z,4.70
2019-03-21T21:20:52.228Z,4.70
2019-03-21T21:26:21.548Z,4.50
2019-03-21T21:32:01.432Z,4.50
2019-03-21T21:37:31.433Z,4.30
2019-03-21T21:43:02.860Z,4.20
2019-03-21T21:48:32.682Z,4.00
2019-03-21T21:54:02.311Z,3.90
2019-03-21T21:59:33.200Z,3.80
2019-03-21T22:05:02.742Z,3.70
2019-03-21T22:10:32.408Z,3.60
2019-03-21T22:16:03.817Z,3.50
2019-03-21T22:21:33.469Z,3.40
2019-03-21T22:27:03.237Z,3.30
2019-03-21T22:32:33.117Z,3.20
2019-03-21T22:38:02.899Z,3.10
2019-03-21T22:43:32.430Z,3.00
2019-03-21T22:49:01.914Z,2.90
2019-03-21T22:54:31.632Z,2.80
2019-03-21T23:00:20.440Z,2.70
2019-03-21T23:05:49.905Z,2.70
2019-03-21T23:11:19.256Z,2.60
2019-03-21T23:16:48.648Z,2.60
2019-03-21T23:22:18.086Z,2.50
2019-03-21T23:27:47.487Z,2.40
2019-03-21T23:33:16.822Z,2.30
2019-03-21T23:38:46.292Z,2.20
2019-03-21T23:44:15.683Z,2.10
2019-03-21T23:49:45.197Z,2.00
2019-03-21T23:55:16.924Z,2.00
